Time;durP1;ratioP1;P1;durP2;ratioP2;P2;SDS_P1;SDS_P2;PMS_P1;PMS_P2;Temp;Humidity;BMP_temperature;BMP_pressure;BME280_temperature;BME280_humidity;BME280_pressure;Samples;Min_cycle;Max_cycle;Signal;HPM_P1;HPM_P2
2023/01/06 00:01:50;;;;;;;2.67;1.20;;;18.20;77.30;;;;;;7407326;19;19953;-68
2023/01/06 00:04:19;;;;;;;3.63;0.68;;;18.20;77.30;;;;;;7407552;19;20289;-69
2023/01/06 00:06:48;;;;;;;3.00;1.20;;;18.10;77.30;;;;;;7401670;19;19953;-68
2023/01/06 00:09:17;;;;;;;3.08;1.00;;;18.20;77.30;;;;;;7408230;19;19982;-68
2023/01/06 00:11:49;;;;;;;1.90;1.10;;;18.10;77.30;;;;;;7407920;19;19927;-68
2023/01/06 00:14:18;;;;;;;2.90;1.25;;;18.10;77.30;;;;;;7408929;19;19922;-68
2023/01/06 00:16:47;;;;;;;2.40;0.43;;;18.10;77.30;;;;;;7406983;19;20298;-68
2023/01/06 00:19:16;;;;;;;3.85;1.00;;;18.10;77.40;;;;;;7408798;19;19926;-68
2023/01/06 00:21:45;;;;;;;4.68;1.83;;;18.00;77.30;;;;;;7408118;19;20408;-68
2023/01/06 00:24:14;;;;;;;2.53;1.30;;;18.00;77.30;;;;;;7400699;19;19921;-69
2023/01/06 00:26:43;;;;;;;2.83;1.02;;;18.00;77.40;;;;;;7407349;19;19922;-68
2023/01/06 00:29:15;;;;;;;3.58;1.85;;;18.00;77.30;;;;;;7405786;19;19922;-68
2023/01/06 00:31:44;;;;;;;3.35;1.30;;;18.00;77.30;;;;;;7404679;19;19947;-69
2023/01/06 00:34:14;;;;;;;3.30;1.23;;;18.00;77.30;;;;;;7403327;19;19918;-69
2023/01/06 00:36:43;;;;;;;;;;;18.00;77.40;;;;;;7404945;19;19987;-69
2023/01/06 00:39:14;;;;;;;2.40;1.02;;;18.00;77.30;;;;;;7404895;19;19931;-68
2023/01/06 00:44:28;;;;;;;2.83;1.15;;;17.90;77.30;;;;;;7402355;19;19918;-68
2023/01/06 00:46:57;;;;;;;2.90;1.05;;;17.90;77.20;;;;;;7406823;19;19926;-68
2023/01/06 00:49:26;;;;;;;2.45;0.90;;;17.90;77.30;;;;;;7405180;19;19919;-69
2023/01/06 00:51:56;;;;;;;3.72;1.00;;;17.90;77.20;;;;;;7407852;19;19918;-69
2023/01/06 00:54:26;;;;;;;2.33;1.00;;;17.90;77.30;;;;;;7407874;19;20344;-68
2023/01/06 00:56:56;;;;;;;2.20;0.90;;;17.90;77.20;;;;;;7396804;19;19928;-68
2023/01/06 00:59:28;;;;;;;2.53;0.82;;;17.90;77.20;;;;;;7400295;19;19975;-68
2023/01/06 01:01:59;;;;;;;3.10;1.23;;;17.90;77.20;;;;;;7404518;19;20384;-68
2023/01/06 01:04:28;;;;;;;2.53;1.02;;;17.90;77.20;;;;;;7408172;19;19940;-68
2023/01/06 01:06:58;;;;;;;2.83;1.00;;;17.90;77.20;;;;;;7404977;19;19926;-67
2023/01/06 01:09:28;;;;;;;2.60;0.40;;;17.90;77.20;;;;;;7407028;19;19925;-68
2023/01/06 01:12:13;;;;;;;4.07;1.92;;;17.90;77.30;;;;;;7402504;19;19918;-68
2023/01/06 01:14:47;;;;;;;3.78;1.35;;;17.90;77.30;;;;;;7397977;19;19990;-68
2023/01/06 01:17:20;;;;;;;2.75;1.00;;;17.80;77.20;;;;;;7404391;19;19943;-69
2023/01/06 01:19:53;;;;;;;2.45;1.05;;;17.80;77.20;;;;;;7406304;19;19974;-67
2023/01/06 01:22:22;;;;;;;3.40;1.88;;;17.80;77.20;;;;;;7406482;19;19919;-68
2023/01/06 01:24:51;;;;;;;3.35;1.30;;;17.80;77.10;;;;;;7405892;19;19921;-68
2023/01/06 01:27:20;;;;;;;2.40;1.00;;;17.80;77.20;;;;;;7406046;19;19922;-69
2023/01/06 01:29:52;;;;;;;1.95;0.95;;;17.80;77.20;;;;;;7405543;19;20378;-67
2023/01/06 01:32:21;;;;;;;3.28;1.30;;;17.80;77.10;;;;;;7396004;19;19940;-68
2023/01/06 01:34:50;;;;;;;3.45;1.10;;;17.80;77.10;;;;;;7404418;19;19919;-67
2023/01/06 01:37:19;;;;;;;2.60;0.82;;;17.80;77.10;;;;;;7403760;19;19919;-68
2023/01/06 01:39:48;;;;;;;1.92;0.38;;;17.80;77.10;;;;;;7406947;19;19915;-68
2023/01/06 01:42:19;;;;;;;2.78;0.60;;;17.80;77.80;;;;;;7406198;19;19938;-68
2023/01/06 01:45:03;;;;;;;2.53;0.98;;;17.80;77.20;;;;;;7407421;19;19930;-68
2023/01/06 01:47:40;;;;;;;1.95;0.40;;;17.80;77.10;;;;;;7400307;19;20554;-69
2023/01/06 01:50:18;;;;;;;2.75;1.20;;;17.70;77.10;;;;;;7405741;19;19915;-68
2023/01/06 01:52:51;;;;;;;3.25;1.33;;;17.70;77.10;;;;;;7406194;19;19923;-68
2023/01/06 01:55:21;;;;;;;3.22;1.33;;;17.70;77.10;;;;;;7404294;19;19927;-68
2023/01/06 01:57:55;;;;;;;2.70;1.20;;;17.70;77.10;;;;;;7405820;19;19918;-68
2023/01/06 02:00:26;;;;;;;3.22;1.08;;;17.70;77.10;;;;;;7403302;19;19932;-65
2023/01/06 02:02:56;;;;;;;2.45;1.00;;;17.70;77.10;;;;;;7402711;19;19919;-69
2023/01/06 02:05:29;;;;;;;2.22;0.90;;;17.70;77.10;;;;;;7396161;19;19939;-68
2023/01/06 02:08:00;;;;;;;4.22;1.98;;;17.70;77.10;;;;;;7404359;19;19923;-68
2023/01/06 02:10:29;;;;;;;2.65;1.00;;;17.70;77.10;;;;;;7404852;19;19922;-69
2023/01/06 02:13:01;;;;;;;2.70;1.10;;;17.60;77.00;;;;;;7406111;19;19926;-69
2023/01/06 02:15:35;;;;;;;3.17;1.17;;;17.70;77.00;;;;;;7405967;19;19926;-68
2023/01/06 02:18:28;;;;;;;2.40;0.30;;;17.60;77.00;;;;;;7404796;19;19914;-68
2023/01/06 02:21:22;;;;;;;2.92;1.33;;;17.60;77.00;;;;;;7398373;19;20372;-68
2023/01/06 02:24:27;;;;;;;3.15;0.52;;;17.70;77.00;;;;;;7403869;19;20000;-68
2023/01/06 02:27:28;;;;;;;2.55;0.50;;;17.60;77.60;;;;;;7402360;19;20296;-68
2023/01/06 02:30:30;;;;;;;2.30;0.90;;;17.60;77.00;;;;;;7403544;19;19923;-68
2023/01/06 02:33:13;;;;;;;1.50;0.40;;;17.60;77.00;;;;;;7395365;19;19926;-69
2023/01/06 02:36:01;;;;;;;2.20;1.23;;;17.60;77.00;;;;;;7396335;19;19942;-68
2023/01/06 02:38:42;;;;;;;2.30;1.20;;;17.60;77.00;;;;;;7400373;19;19996;-68
2023/01/06 02:41:28;;;;;;;2.53;0.98;;;17.60;77.00;;;;;;7402342;19;19931;-68
2023/01/06 02:44:04;;;;;;;3.22;1.83;;;17.60;77.00;;;;;;7398399;19;19934;-68
2023/01/06 02:46:57;;;;;;;2.40;1.00;;;17.60;77.00;;;;;;7401673;19;19925;-68
2023/01/06 02:49:34;;;;;;;1.60;0.85;;;17.60;77.00;;;;;;7398608;19;20031;-69
2023/01/06 02:52:10;;;;;;;2.65;0.82;;;17.60;77.00;;;;;;7402132;19;21275;-69
2023/01/06 02:54:46;;;;;;;3.90;1.35;;;17.60;77.00;;;;;;7402315;19;19962;-68
2023/01/06 02:57:19;;;;;;;2.80;0.35;;;17.60;76.90;;;;;;7401316;19;19955;-69
2023/01/06 02:59:54;;;;;;;1.80;0.70;;;17.60;77.00;;;;;;7405151;19;19926;-68
2023/01/06 03:02:24;;;;;;;2.95;1.02;;;17.60;76.90;;;;;;7388815;19;19918;-68
2023/01/06 03:04:58;;;;;;;1.40;0.30;;;17.50;76.90;;;;;;7400717;19;20257;-69
2023/01/06 03:07:29;;;;;;;2.33;1.13;;;17.50;76.90;;;;;;7403552;19;19931;-68
2023/01/06 03:10:02;;;;;;;1.70;0.30;;;17.50;76.90;;;;;;7401345;19;19985;-68
2023/01/06 03:12:38;;;;;;;1.60;0.50;;;17.50;76.80;;;;;;7402598;19;19926;-68
2023/01/06 03:15:10;;;;;;;2.22;1.05;;;17.50;76.90;;;;;;7407660;19;19926;-68
2023/01/06 03:17:39;;;;;;;2.58;0.47;;;17.50;76.90;;;;;;7409516;19;19939;-68
2023/01/06 03:20:16;;;;;;;2.35;0.47;;;17.50;76.80;;;;;;7412572;19;19938;-69
2023/01/06 03:22:46;;;;;;;2.42;0.73;;;17.50;76.90;;;;;;7408061;19;19974;-69
2023/01/06 03:25:16;;;;;;;2.08;0.93;;;17.50;76.80;;;;;;7406466;19;20372;-68
2023/01/06 03:27:45;;;;;;;2.15;0.43;;;17.50;76.80;;;;;;7409600;19;20348;-68
2023/01/06 03:30:16;;;;;;;2.45;1.65;;;17.50;76.80;;;;;;7409311;19;19955;-68
2023/01/06 03:32:55;;;;;;;2.28;0.40;;;17.50;76.80;;;;;;7403586;19;19915;-69
2023/01/06 03:35:46;;;;;;;3.42;1.33;;;17.50;76.80;;;;;;7408047;19;19977;-68
2023/01/06 03:38:24;;;;;;;2.03;0.80;;;17.50;76.80;;;;;;7403862;19;19926;-68
2023/01/06 03:40:59;;;;;;;1.83;0.25;;;17.50;76.80;;;;;;7407024;19;19918;-68
2023/01/06 03:43:30;;;;;;;2.33;1.65;;;17.50;76.80;;;;;;7407238;19;19922;-68
2023/01/06 03:46:13;;;;;;;2.35;0.80;;;17.50;76.80;;;;;;7407357;19;19918;-69
2023/01/06 03:48:52;;;;;;;1.83;1.15;;;17.40;76.70;;;;;;7409092;19;19951;-68
2023/01/06 03:51:38;;;;;;;2.10;0.40;;;17.50;76.80;;;;;;7407545;19;20031;-68
2023/01/06 03:54:31;;;;;;;1.33;0.40;;;17.40;76.70;;;;;;7399953;19;20286;-68
2023/01/06 03:57:06;;;;;;;2.35;1.10;;;17.40;76.70;;;;;;7406963;19;19940;-68
2023/01/06 03:59:39;;;;;;;2.35;1.10;;;17.40;76.70;;;;;;7405675;19;20344;-68
2023/01/06 04:02:09;;;;;;;1.65;0.65;;;17.40;76.60;;;;;;7407127;19;19975;-67
2023/01/06 04:04:39;;;;;;;2.08;0.82;;;17.50;76.60;;;;;;7408559;19;20457;-68
2023/01/06 04:07:11;;;;;;;1.58;0.52;;;17.50;76.60;;;;;;7408600;19;19927;-69
2023/01/06 04:09:40;;;;;;;0.95;0.13;;;17.60;76.50;;;;;;7401192;19;20345;-69
2023/01/06 04:14:50;;;;;;;1.85;0.30;;;17.70;76.20;;;;;;7405975;19;19918;-68
2023/01/06 04:17:19;;;;;;;1.60;0.68;;;17.80;76.10;;;;;;7410084;19;20361;-68
2023/01/06 04:19:49;;;;;;;1.60;0.88;;;17.80;75.80;;;;;;7406178;19;19951;-68
2023/01/06 04:22:20;;;;;;;2.45;0.30;;;17.90;75.60;;;;;;7408580;19;19926;-68
2023/01/06 04:24:50;;;;;;;1.88;0.60;;;18.00;75.50;;;;;;7409733;19;19914;-67
2023/01/06 04:27:19;;;;;;;2.38;0.95;;;18.10;75.30;;;;;;7401025;19;19926;-68
2023/01/06 04:29:48;;;;;;;2.53;0.90;;;18.20;75.00;;;;;;7407708;19;19914;-67
2023/01/06 04:32:18;;;;;;;1.48;0.70;;;18.30;74.80;;;;;;7406644;19;19943;-68
2023/01/06 04:34:47;;;;;;;1.33;0.65;;;18.40;74.60;;;;;;7407964;19;19911;-68
2023/01/06 04:37:16;;;;;;;1.80;0.70;;;18.50;74.50;;;;;;7407120;19;20039;-68
2023/01/06 04:39:48;;;;;;;1.25;0.20;;;18.50;74.20;;;;;;7405885;19;19922;-68
2023/01/06 04:42:17;;;;;;;1.85;0.20;;;18.60;74.10;;;;;;7409344;19;20400;-68
2023/01/06 04:44:47;;;;;;;1.33;0.10;;;18.60;74.00;;;;;;7405997;19;20266;-68
2023/01/06 04:47:16;;;;;;;1.90;0.35;;;18.60;73.90;;;;;;7404279;19;20319;-67
2023/01/06 04:49:45;;;;;;;1.77;0.70;;;18.60;73.80;;;;;;7402383;19;19926;-68
2023/01/06 04:52:14;;;;;;;1.63;0.20;;;18.60;73.90;;;;;;7406466;19;19922;-68
2023/01/06 04:54:43;;;;;;;3.13;1.05;;;18.60;73.80;;;;;;7404910;19;19922;-68
2023/01/06 04:57:16;;;;;;;1.80;0.30;;;18.60;73.80;;;;;;7405454;19;20486;-68
2023/01/06 04:59:45;;;;;;;1.98;0.80;;;18.60;73.90;;;;;;7403129;19;19914;-68
2023/01/06 05:02:14;;;;;;;1.92;0.70;;;18.60;73.90;;;;;;7407965;19;19930;-68
2023/01/06 05:04:43;;;;;;;2.65;0.38;;;18.50;74.00;;;;;;7398741;19;19926;-68
2023/01/06 05:07:12;;;;;;;1.83;0.20;;;18.50;74.00;;;;;;7407423;19;19931;-68
2023/01/06 05:09:41;;;;;;;1.65;0.85;;;18.50;74.00;;;;;;7407084;19;19924;-68
2023/01/06 05:12:10;;;;;;;1.00;0.20;;;18.50;74.10;;;;;;7408199;19;19957;-68
2023/01/06 05:14:41;;;;;;;1.42;0.20;;;18.50;74.20;;;;;;7407401;19;20412;-68
2023/01/06 05:17:11;;;;;;;1.60;0.75;;;18.40;74.20;;;;;;7407005;19;19918;-68
2023/01/06 05:19:40;;;;;;;1.27;0.20;;;18.40;74.20;;;;;;7401560;19;19918;-68
2023/01/06 05:22:10;;;;;;;1.38;0.70;;;18.40;74.30;;;;;;7406632;19;19926;-68
2023/01/06 05:24:42;;;;;;;2.28;0.80;;;18.30;74.30;;;;;;7406438;19;19978;-68
2023/01/06 05:27:11;;;;;;;2.78;1.13;;;18.30;74.30;;;;;;7404784;19;19922;-69
2023/01/06 05:29:43;;;;;;;1.70;1.20;;;18.30;74.40;;;;;;7405485;19;19939;-69
2023/01/06 05:32:12;;;;;;;1.77;0.68;;;18.20;74.40;;;;;;7408322;19;19943;-67
2023/01/06 05:34:41;;;;;;;2.28;0.20;;;18.20;74.40;;;;;;7405501;19;20270;-68
2023/01/06 05:37:12;;;;;;;1.77;0.45;;;18.20;74.50;;;;;;7403737;19;19940;-68
2023/01/06 05:39:41;;;;;;;1.63;0.75;;;18.20;74.60;;;;;;7405851;19;19991;-69
2023/01/06 05:42:10;;;;;;;1.92;1.23;;;18.10;74.60;;;;;;7407022;19;19939;-68
2023/01/06 05:44:42;;;;;;;1.70;0.90;;;18.10;74.70;;;;;;7401927;19;19930;-68
2023/01/06 05:47:11;;;;;;;1.52;0.68;;;18.10;74.80;;;;;;7405907;19;19947;-69
2023/01/06 05:49:47;;;;;;;1.60;0.73;;;18.00;75.30;;;;;;7403334;19;19974;-68
2023/01/06 05:52:16;;;;;;;1.75;1.00;;;18.00;74.80;;;;;;7404812;19;19926;-68
2023/01/06 05:54:45;;;;;;;1.10;0.20;;;18.00;74.80;;;;;;7405239;19;20330;-68
2023/01/06 05:57:15;;;;;;;1.63;1.00;;;18.00;74.80;;;;;;7405091;19;19931;-67
2023/01/06 05:59:47;;;;;;;2.25;0.98;;;18.00;74.90;;;;;;7402462;19;19922;-67
2023/01/06 06:02:16;;;;;;;1.88;0.90;;;17.90;74.80;;;;;;7389837;19;19929;-68
2023/01/06 06:04:45;;;;;;;;;;;17.90;74.90;;;;;;7408568;19;19929;-68
2023/01/06 06:07:14;;;;;;;1.30;0.20;;;17.90;74.90;;;;;;7405663;19;20283;-68
2023/01/06 06:09:44;;;;;;;1.30;0.20;;;17.90;75.00;;;;;;7404687;19;19918;-68
2023/01/06 06:12:14;;;;;;;2.10;0.22;;;17.90;75.00;;;;;;7406600;19;19914;-68
2023/01/06 06:14:43;;;;;;;1.60;1.00;;;17.80;75.00;;;;;;7403930;19;20386;-68
2023/01/06 06:17:21;;;;;;;1.30;0.22;;;17.80;75.00;;;;;;7401061;19;19925;-68
2023/01/06 06:19:50;;;;;;;1.90;0.80;;;17.80;75.00;;;;;;7399717;19;19914;-68
2023/01/06 06:22:19;;;;;;;1.50;0.93;;;17.80;75.00;;;;;;7406242;19;20568;-67
2023/01/06 06:24:48;;;;;;;1.02;0.10;;;17.80;75.10;;;;;;7402971;19;19954;-68
2023/01/06 06:27:18;;;;;;;1.63;0.80;;;17.70;75.10;;;;;;7402689;19;19920;-68
2023/01/06 06:29:47;;;;;;;1.60;0.85;;;17.70;75.10;;;;;;7403842;19;20053;-68
2023/01/06 06:32:21;;;;;;;2.05;0.40;;;17.70;75.70;;;;;;7403525;19;19930;-69
2023/01/06 06:34:51;;;;;;;1.63;0.40;;;17.70;75.10;;;;;;7399176;19;20500;-68
2023/01/06 06:37:20;;;;;;;1.25;0.32;;;17.60;75.10;;;;;;7402017;19;19922;-68
2023/01/06 06:39:49;;;;;;;1.33;0.20;;;17.60;75.10;;;;;;7402667;19;19922;-68
2023/01/06 06:42:18;;;;;;;1.85;0.98;;;17.60;75.10;;;;;;7403028;19;19948;-67
2023/01/06 06:44:47;;;;;;;0.93;0.20;;;17.70;75.30;;;;;;7403731;19;19982;-68
2023/01/06 06:47:16;;;;;;;1.10;0.28;;;17.60;75.20;;;;;;7403877;19;19939;-68
2023/01/06 06:49:49;;;;;;;1.40;0.30;;;17.60;75.20;;;;;;7406156;19;19926;-68
2023/01/06 06:52:19;;;;;;;1.33;0.70;;;17.60;75.20;;;;;;7401725;19;19923;-68
2023/01/06 06:54:48;;;;;;;1.05;0.38;;;17.60;75.30;;;;;;7408389;19;19966;-68
2023/01/06 06:57:18;;;;;;;1.38;1.20;;;17.60;75.40;;;;;;7410890;19;19915;-68
2023/01/06 06:59:48;;;;;;;1.98;0.30;;;17.50;75.30;;;;;;7409753;19;19922;-68
2023/01/06 07:02:17;;;;;;;1.95;1.20;;;17.50;75.30;;;;;;7408388;19;19940;-68
2023/01/06 07:04:50;;;;;;;2.85;0.30;;;17.50;75.30;;;;;;7409354;19;19923;-68
2023/01/06 07:07:19;;;;;;;5.55;0.98;;;17.50;75.40;;;;;;7405409;19;19914;-67
2023/01/06 07:09:50;;;;;;;1.50;0.95;;;17.50;75.40;;;;;;7401595;19;20373;-70
2023/01/06 07:12:20;;;;;;;3.40;0.98;;;17.50;75.50;;;;;;7402811;19;19925;-74
2023/01/06 07:14:49;;;;;;;7.63;1.38;;;17.50;75.50;;;;;;7409337;19;19911;-67
2023/01/06 07:17:18;;;;;;;2.88;0.77;;;17.50;75.50;;;;;;7406407;19;19974;-68
2023/01/06 07:19:50;;;;;;;4.40;0.63;;;17.60;75.60;;;;;;7402729;19;19941;-66
2023/01/06 07:22:23;;;;;;;5.13;0.40;;;17.60;75.60;;;;;;7409568;19;20276;-67
2023/01/06 07:24:52;;;;;;;1.70;0.20;;;17.70;75.50;;;;;;7407335;19;20369;-67
2023/01/06 07:27:21;;;;;;;2.92;0.75;;;17.70;75.50;;;;;;7401209;19;19915;-67
2023/01/06 07:29:51;;;;;;;2.08;1.08;;;17.80;76.00;;;;;;7405209;19;20563;-67
2023/01/06 07:32:21;;;;;;;2.03;0.85;;;17.80;75.30;;;;;;7405853;19;19982;-67
2023/01/06 07:34:52;;;;;;;2.80;0.73;;;17.90;75.20;;;;;;7405150;19;19926;-67
2023/01/06 07:37:26;;;;;;;1.95;0.70;;;18.00;75.10;;;;;;7406738;19;19930;-67
2023/01/06 07:39:55;;;;;;;1.23;0.65;;;18.10;74.90;;;;;;7405311;19;19922;-67
2023/01/06 07:42:24;;;;;;;3.15;0.85;;;18.20;74.70;;;;;;7406280;19;19915;-67
2023/01/06 07:44:53;;;;;;;1.48;0.73;;;18.20;74.50;;;;;;7395193;19;20408;-67
2023/01/06 07:47:22;;;;;;;4.63;0.63;;;18.30;74.30;;;;;;7406020;19;19975;-67
2023/01/06 07:49:54;;;;;;;2.70;0.77;;;18.40;74.20;;;;;;7406447;19;19961;-67
2023/01/06 07:52:23;;;;;;;1.23;0.20;;;18.50;74.10;;;;;;7408264;19;19922;-66
2023/01/06 07:54:52;;;;;;;3.15;1.00;;;18.60;73.90;;;;;;7401515;19;19928;-67
2023/01/06 07:57:22;;;;;;;2.70;0.75;;;18.70;73.70;;;;;;7404062;19;19931;-67
2023/01/06 07:59:55;;;;;;;2.03;0.60;;;18.80;73.50;;;;;;7396477;19;20202;-66
2023/01/06 08:02:25;;;;;;;1.25;0.70;;;18.80;73.40;;;;;;7390631;19;19922;-67
2023/01/06 08:04:56;;;;;;;;;;;18.90;73.10;;;;;;7401448;19;19934;-66
2023/01/06 08:07:26;;;;;;;1.33;0.57;;;19.00;73.30;;;;;;7400108;19;19925;-66
2023/01/06 08:09:55;;;;;;;1.60;0.63;;;19.00;72.90;;;;;;7407528;19;20344;-66
2023/01/06 08:12:24;;;;;;;2.08;0.80;;;19.10;72.70;;;;;;7406627;19;19926;-66
2023/01/06 08:14:59;;;;;;;1.15;0.20;;;19.20;72.60;;;;;;7405950;19;19944;-66
2023/01/06 08:17:29;;;;;;;1.45;0.50;;;19.20;72.40;;;;;;7401256;19;19918;-68
2023/01/06 08:20:01;;;;;;;4.05;0.70;;;19.30;72.40;;;;;;7404156;19;19934;-67
2023/01/06 08:22:30;;;;;;;0.95;0.20;;;19.30;72.30;;;;;;7404906;19;19925;-66
2023/01/06 08:24:59;;;;;;;1.20;0.20;;;19.30;72.40;;;;;;7396358;19;20275;-66
2023/01/06 08:27:29;;;;;;;2.75;0.73;;;19.40;72.50;;;;;;7406603;19;19982;-67
2023/01/06 08:29:58;;;;;;;2.72;0.93;;;19.50;72.90;;;;;;7403346;19;19992;-66
2023/01/06 08:32:27;;;;;;;5.47;0.93;;;19.50;74.30;;;;;;7403057;19;19922;-65
2023/01/06 08:34:56;;;;;;;4.22;1.05;;;19.60;74.20;;;;;;7400711;19;20554;-66
2023/01/06 08:37:28;;;;;;;2.45;0.30;;;19.70;74.30;;;;;;7402327;19;19922;-64
2023/01/06 08:39:57;;;;;;;2.28;0.85;;;19.70;74.70;;;;;;7402858;19;19956;-63
2023/01/06 08:42:26;;;;;;;5.10;0.30;;;19.70;75.50;;;;;;7391710;19;19921;-65
2023/01/06 08:44:55;;;;;;;1.20;0.13;;;19.70;74.90;;;;;;7402241;19;19922;-64
2023/01/06 08:47:25;;;;;;;1.60;0.80;;;19.80;75.10;;;;;;7404606;19;19982;-70
2023/01/06 08:49:54;;;;;;;1.70;0.40;;;19.80;75.10;;;;;;7403758;19;20540;-65
2023/01/06 08:52:23;;;;;;;5.53;1.05;;;19.90;75.30;;;;;;7408351;19;20346;-64
2023/01/06 08:54:54;;;;;;;1.35;0.10;;;19.90;75.20;;;;;;7403376;19;19926;-62
2023/01/06 08:57:24;;;;;;;3.88;1.20;;;20.00;75.40;;;;;;7403592;19;19935;-64
2023/01/06 08:59:53;;;;;;;3.47;0.80;;;20.00;75.40;;;;;;7391072;19;19927;-61
2023/01/06 09:02:22;;;;;;;5.32;0.68;;;20.00;75.30;;;;;;7407018;19;19947;-61
2023/01/06 09:04:51;;;;;;;1.65;0.73;;;20.00;75.20;;;;;;7398339;19;19919;-73
2023/01/06 09:07:20;;;;;;;1.65;1.00;;;20.00;75.20;;;;;;7391368;19;19947;-74
2023/01/06 09:09:49;;;;;;;2.50;0.30;;;20.00;75.10;;;;;;7408089;19;20384;-73
2023/01/06 09:12:21;;;;;;;2.60;1.02;;;20.00;75.10;;;;;;7403213;19;19919;-73
2023/01/06 09:14:50;;;;;;;2.55;0.95;;;20.00;75.20;;;;;;7401911;19;19915;-73
2023/01/06 09:17:19;;;;;;;2.88;1.30;;;20.00;75.20;;;;;;7401453;19;19922;-74
2023/01/06 09:19:48;;;;;;;1.92;1.13;;;19.90;75.10;;;;;;7407246;19;19918;-74
2023/01/06 09:22:17;;;;;;;1.95;0.20;;;19.90;75.70;;;;;;7406951;19;19928;-73
2023/01/06 09:24:47;;;;;;;2.95;0.77;;;19.90;75.10;;;;;;7406014;19;19922;-73
2023/01/06 09:27:16;;;;;;;1.38;0.20;;;19.80;75.00;;;;;;7405648;19;20187;-74
2023/01/06 09:29:48;;;;;;;2.20;0.88;;;19.90;75.10;;;;;;7407849;19;19923;-72
2023/01/06 09:32:17;;;;;;;1.52;0.70;;;19.80;75.00;;;;;;7397545;19;19922;-73
2023/01/06 09:34:46;;;;;;;2.00;0.20;;;19.80;75.10;;;;;;7401480;19;20269;-74
2023/01/06 09:37:15;;;;;;;2.40;0.85;;;19.70;74.90;;;;;;7406698;19;19942;-74
2023/01/06 09:39:46;;;;;;;1.00;0.60;;;19.70;75.00;;;;;;7406627;19;19922;-73
2023/01/06 09:42:32;;;;;;;1.70;0.82;;;19.70;75.00;;;;;;7405946;19;19923;-73
2023/01/06 09:45:08;;;;;;;1.65;0.73;;;19.70;75.00;;;;;;7404126;19;20022;-74
2023/01/06 09:47:42;;;;;;;2.78;0.20;;;19.60;75.00;;;;;;7406794;19;20322;-73
2023/01/06 09:50:17;;;;;;;1.52;0.60;;;19.60;75.00;;;;;;7397656;19;19929;-73
2023/01/06 09:52:51;;;;;;;1.15;0.63;;;19.60;75.00;;;;;;7404832;19;19949;-74
2023/01/06 09:55:28;;;;;;;2.15;0.65;;;19.50;74.90;;;;;;7407183;19;19916;-73
2023/01/06 09:58:02;;;;;;;2.00;0.60;;;19.50;74.90;;;;;;7406091;19;19914;-73
2023/01/06 10:00:39;;;;;;;1.30;0.40;;;19.50;74.90;;;;;;7405425;19;19923;-73
2023/01/06 10:03:11;;;;;;;2.22;1.02;;;19.50;75.00;;;;;;7400238;19;19923;-73
2023/01/06 10:05:50;;;;;;;2.90;0.90;;;19.40;74.90;;;;;;7400816;19;19943;-70
2023/01/06 10:08:31;;;;;;;1.70;0.68;;;19.40;74.90;;;;;;7404927;19;19918;-73
2023/01/06 10:11:14;;;;;;;1.13;0.28;;;19.30;74.90;;;;;;7406153;19;20409;-73
2023/01/06 10:13:59;;;;;;;2.53;0.20;;;19.30;74.80;;;;;;7406031;19;20244;-73
2023/01/06 10:16:45;;;;;;;1.40;0.77;;;19.30;74.80;;;;;;7406709;19;19939;-73
2023/01/06 10:19:24;;;;;;;4.22;0.88;;;19.20;74.80;;;;;;7407294;19;19952;-74
2023/01/06 10:22:07;;;;;;;1.65;0.22;;;19.20;74.80;;;;;;7399718;19;20281;-73
2023/01/06 10:24:50;;;;;;;2.55;0.88;;;19.10;74.80;;;;;;7403184;19;19930;-72
2023/01/06 10:27:26;;;;;;;1.60;0.60;;;19.10;74.80;;;;;;7405632;19;19943;-71
2023/01/06 10:29:57;;;;;;;2.17;0.30;;;19.10;74.90;;;;;;7406931;19;20271;-72
2023/01/06 10:32:33;;;;;;;2.10;0.80;;;19.10;74.90;;;;;;7404379;19;19919;-72
2023/01/06 10:35:16;;;;;;;3.03;0.80;;;19.10;74.90;;;;;;7403712;19;19926;-72
2023/01/06 10:37:48;;;;;;;2.78;0.65;;;19.00;74.80;;;;;;7404865;19;19922;-73
2023/01/06 10:40:24;;;;;;;1.83;0.80;;;19.00;74.90;;;;;;7405085;19;19923;-72
2023/01/06 10:43:01;;;;;;;3.63;0.98;;;18.90;74.80;;;;;;7404252;19;19922;-72
2023/01/06 10:45:34;;;;;;;2.47;0.63;;;18.90;74.80;;;;;;7403598;19;19923;-72
2023/01/06 10:48:08;;;;;;;2.50;0.60;;;18.90;74.90;;;;;;7402229;19;19981;-74
2023/01/06 10:50:37;;;;;;;1.90;0.70;;;18.90;74.80;;;;;;7405047;19;19926;-73
2023/01/06 10:53:07;;;;;;;;;;;18.90;74.80;;;;;;7405590;19;19925;-73
2023/01/06 10:55:45;;;;;;;2.00;0.55;;;18.90;74.70;;;;;;7404104;19;19929;-74
2023/01/06 10:58:34;;;;;;;1.05;0.20;;;18.80;74.80;;;;;;7404238;19;20250;-74
2023/01/06 11:01:10;;;;;;;2.78;1.08;;;18.80;74.80;;;;;;7402909;19;19994;-74
2023/01/06 11:03:43;;;;;;;3.58;0.80;;;18.80;74.80;;;;;;7394199;19;19926;-73
2023/01/06 11:06:19;;;;;;;1.25;0.70;;;18.90;74.70;;;;;;7403150;19;19922;-74
2023/01/06 11:08:48;;;;;;;1.30;0.10;;;18.90;74.60;;;;;;7404184;19;20260;-75
2023/01/06 11:11:19;;;;;;;;;;;19.00;74.50;;;;;;7405730;19;20017;-74
2023/01/06 11:13:51;;;;;;;1.40;0.60;;;19.00;74.40;;;;;;7402410;19;19943;-74
2023/01/06 11:16:23;;;;;;;1.13;0.20;;;19.10;74.30;;;;;;7401160;19;19922;-74
2023/01/06 11:18:58;;;;;;;2.17;0.85;;;19.10;74.00;;;;;;7399973;19;19914;-73
2023/01/06 11:21:41;;;;;;;1.13;0.63;;;19.30;73.90;;;;;;7402181;19;19932;-72
2023/01/06 11:24:21;;;;;;;1.17;0.52;;;19.30;73.70;;;;;;7403407;19;19922;-72
2023/01/06 11:26:55;;;;;;;1.13;0.60;;;19.40;73.50;;;;;;7404902;19;19928;-72
2023/01/06 11:29:30;;;;;;;1.33;0.50;;;19.50;73.30;;;;;;7402599;19;20559;-73
2023/01/06 11:32:05;;;;;;;1.15;0.45;;;19.60;73.20;;;;;;7404040;19;19922;-72
2023/01/06 11:34:37;;;;;;;1.05;0.55;;;19.60;72.90;;;;;;7400199;19;20373;-73
2023/01/06 11:37:09;;;;;;;1.98;0.90;;;19.70;73.30;;;;;;7407885;19;19919;-72
2023/01/06 11:39:39;;;;;;;1.90;0.77;;;19.80;72.50;;;;;;7412481;19;20651;-72
2023/01/06 11:42:15;;;;;;;0.95;0.22;;;19.90;72.40;;;;;;7405380;19;21583;-72
2023/01/06 11:44:45;;;;;;;1.52;0.60;;;20.00;72.30;;;;;;7408706;19;20373;-73
2023/01/06 11:47:17;;;;;;;1.67;0.63;;;20.00;72.20;;;;;;7409044;19;19926;-72
2023/01/06 11:49:53;;;;;;;1.20;0.63;;;20.00;72.10;;;;;;7411188;19;19927;-73
2023/01/06 11:52:23;;;;;;;;;;;20.00;72.10;;;;;;7411179;19;19944;-74
2023/01/06 11:55:04;;;;;;;1.65;0.65;;;20.00;72.10;;;;;;7409371;19;19931;-73
2023/01/06 11:57:43;;;;;;;1.30;0.60;;;20.00;72.10;;;;;;7409942;19;19932;-74
2023/01/06 12:00:36;;;;;;;1.42;0.63;;;20.00;72.10;;;;;;7402192;19;19918;-73
2023/01/06 12:03:15;;;;;;;2.03;0.60;;;20.00;72.70;;;;;;7409562;19;19925;-72
2023/01/06 12:05:53;;;;;;;2.65;0.95;;;20.00;72.20;;;;;;7407074;19;19918;-73
2023/01/06 12:08:26;;;;;;;2.22;0.50;;;19.90;72.20;;;;;;7408876;19;19926;-73
2023/01/06 12:11:00;;;;;;;2.30;0.70;;;19.90;72.30;;;;;;7408910;19;20359;-74
2023/01/06 12:13:31;;;;;;;1.98;0.73;;;19.80;72.40;;;;;;7408649;19;19925;-73
2023/01/06 12:16:04;;;;;;;1.73;0.73;;;19.80;72.50;;;;;;7403245;19;19922;-74
2023/01/06 12:18:36;;;;;;;2.55;0.75;;;19.80;72.50;;;;;;7407612;19;20009;-73
2023/01/06 12:21:10;;;;;;;1.58;0.10;;;19.80;72.50;;;;;;7407738;19;19923;-73
2023/01/06 12:23:41;;;;;;;1.67;0.57;;;19.70;72.60;;;;;;7409223;19;19918;-72
2023/01/06 12:26:33;;;;;;;1.25;0.13;;;19.70;72.70;;;;;;7407277;19;19965;-74
2023/01/06 12:29:03;;;;;;;1.67;0.15;;;19.70;72.80;;;;;;7409338;19;20268;-73
2023/01/06 12:31:44;;;;;;;1.13;0.13;;;19.70;72.80;;;;;;7408570;19;19993;-74
2023/01/06 12:34:17;;;;;;;1.90;0.20;;;19.60;72.80;;;;;;7398343;19;19930;-74
2023/01/06 12:36:53;;;;;;;2.13;0.95;;;19.60;72.90;;;;;;7406873;19;19946;-73
2023/01/06 12:39:50;;;;;;;1.27;0.20;;;19.50;72.90;;;;;;7406833;19;19922;-74
2023/01/06 12:42:29;;;;;;;1.60;0.10;;;19.50;73.00;;;;;;7402797;19;20349;-74
2023/01/06 12:45:04;;;;;;;1.30;0.20;;;19.50;73.00;;;;;;7408167;19;19915;-74
2023/01/06 12:47:41;;;;;;;1.15;0.10;;;19.40;73.00;;;;;;7407123;19;19919;-73
2023/01/06 12:50:19;;;;;;;3.33;0.30;;;19.40;73.10;;;;;;7399151;19;19914;-74
2023/01/06 12:52:56;;;;;;;1.42;0.40;;;19.40;73.10;;;;;;7405411;19;19911;-73
2023/01/06 12:55:35;;;;;;;1.75;0.20;;;19.40;73.20;;;;;;7409848;19;19994;-74
2023/01/06 12:58:11;;;;;;;2.40;0.20;;;19.30;73.20;;;;;;7406183;19;20301;-73
2023/01/06 13:00:51;;;;;;;2.45;0.20;;;19.30;73.20;;;;;;7407946;19;20069;-73
2023/01/06 13:03:52;;;;;;;1.85;0.93;;;19.30;73.20;;;;;;7406684;19;19978;-74
2023/01/06 13:06:37;;;;;;;2.05;0.85;;;19.30;73.30;;;;;;7400095;19;19919;-72
2023/01/06 13:09:35;;;;;;;1.90;0.30;;;19.20;73.30;;;;;;7406025;19;19934;-72
2023/01/06 13:12:26;;;;;;;2.13;0.63;;;19.20;73.30;;;;;;7406399;19;19946;-72
2023/01/06 13:15:02;;;;;;;2.20;0.95;;;19.20;73.40;;;;;;7406602;19;19923;-73
2023/01/06 13:17:39;;;;;;;2.80;0.28;;;19.20;73.40;;;;;;7408148;19;19914;-72
2023/01/06 13:20:18;;;;;;;2.47;0.70;;;19.20;73.50;;;;;;7406947;19;19974;-73
2023/01/06 13:23:02;;;;;;;2.10;0.60;;;19.10;73.90;;;;;;7407023;19;19935;-73
2023/01/06 13:26:22;;;;;;;2.38;0.20;;;19.10;73.40;;;;;;7407820;19;20266;-73